createdAt,value
2019-04-10T00:00:10.626Z,36.48
2019-04-10T00:01:19.617Z,29.52
2019-04-10T00:02:21.694Z,36.30
2019-04-10T00:03:31.497Z,36.98
2019-04-10T00:04:28.029Z,37.53
2019-04-10T00:05:29.283Z,44.42
2019-04-10T00:06:30.316Z,31.97
2019-04-10T00:07:31.336Z,39.85
2019-04-10T00:08:32.491Z,30.48
2019-04-10T00:09:33.558Z,31.82
2019-04-10T00:10:34.561Z,37.25
2019-04-10T00:11:36.630Z,36.23
2019-04-10T00:12:38.773Z,33.42
2019-04-10T00:13:39.992Z,41.37
2019-04-10T00:14:40.996Z,32.00
2019-04-10T00:15:42.367Z,35.08
2019-04-10T00:16:44.533Z,27.73
2019-04-10T00:17:45.641Z,40.38
2019-04-10T00:18:46.662Z,38.45
2019-04-10T00:19:47.984Z,36.93
2019-04-10T00:20:49.150Z,32.60
2019-04-10T00:21:50.473Z,32.38
2019-04-10T00:22:51.527Z,31.80
2019-04-10T00:23:52.548Z,35.30
2019-04-10T00:24:54.514Z,28.83
2019-04-10T00:25:55.761Z,34.23
2019-04-10T00:26:56.771Z,30.80
2019-04-10T00:27:57.775Z,30.80
2019-04-10T00:28:58.783Z,34.15
2019-04-10T00:30:00.643Z,31.52
2019-04-10T00:31:01.954Z,32.93
2019-04-10T00:32:03.762Z,24.57
2019-04-10T00:33:05.164Z,29.25
2019-04-10T00:34:07.337Z,32.45
2019-04-10T00:35:08.603Z,31.80
2019-04-10T00:36:10.018Z,36.45
2019-04-10T00:37:21.865Z,32.75
2019-04-10T00:38:14.031Z,32.88
2019-04-10T00:39:15.045Z,30.48
2019-04-10T00:40:16.065Z,31.07
2019-04-10T00:41:17.089Z,24.00
2019-04-10T00:42:18.975Z,25.32
2019-04-10T00:43:20.017Z,30.85
2019-04-10T00:44:21.627Z,34.15
2019-04-10T00:45:22.738Z,30.17
2019-04-10T00:46:24.296Z,28.57
2019-04-10T00:47:25.479Z,36.50
2019-04-10T00:48:26.477Z,30.55
2019-04-10T00:49:27.800Z,29.57
2019-04-10T00:50:28.812Z,38.28
2019-04-10T00:51:30.990Z,28.98
2019-04-10T00:52:32.376Z,25.97
2019-04-10T00:53:33.483Z,33.38
2019-04-10T00:54:35.086Z,34.90
2019-04-10T00:55:36.303Z,39.10
2019-04-10T00:56:37.325Z,40.88
2019-04-10T00:57:39.244Z,34.55
2019-04-10T00:58:41.520Z,36.48
2019-04-10T00:59:42.984Z,35.23
2019-04-10T01:00:43.990Z,27.93
2019-04-10T01:01:45.722Z,30.60
2019-04-10T01:02:47.085Z,34.43
2019-04-10T01:03:49.024Z,28.30
2019-04-10T01:04:51.101Z,26.75
2019-04-10T01:05:52.103Z,26.05
2019-04-10T01:06:53.112Z,25.65
2019-04-10T01:07:54.136Z,30.80
2019-04-10T01:08:55.224Z,29.63
2019-04-10T01:09:56.279Z,33.25
2019-04-10T01:10:57.279Z,39.67
2019-04-10T01:11:59.275Z,33.45
2019-04-10T01:13:00.679Z,34.92
2019-04-10T01:14:01.791Z,24.40
2019-04-10T01:15:06.527Z,32.75
2019-04-10T01:16:09.143Z,29.45
2019-04-10T01:17:10.343Z,27.15
2019-04-10T01:18:11.364Z,32.28
2019-04-10T01:19:12.370Z,38.65
2019-04-10T01:20:13.494Z,35.30
2019-04-10T01:21:14.531Z,33.58
2019-04-10T01:22:15.617Z,38.78
2019-04-10T01:23:16.615Z,30.12
2019-04-10T01:24:17.644Z,32.30
2019-04-10T01:25:18.722Z,30.68
2019-04-10T01:26:19.753Z,38.65
2019-04-10T01:27:20.760Z,29.27
2019-04-10T01:28:22.712Z,31.85
2019-04-10T01:29:23.813Z,37.55
2019-04-10T01:30:24.807Z,34.50
2019-04-10T01:31:26.765Z,40.35
2019-04-10T01:32:28.016Z,40.08
2019-04-10T01:33:29.048Z,37.35
2019-04-10T01:34:30.064Z,33.98
2019-04-10T01:35:32.074Z,35.35
2019-04-10T01:36:33.313Z,31.17
2019-04-10T01:37:47.701Z,30.75
2019-04-10T01:38:37.818Z,37.08
2019-04-10T01:39:40.179Z,41.60
2019-04-10T01:40:41.406Z,40.98
2019-04-10T01:41:42.423Z,51.25
2019-04-10T01:42:44.419Z,41.40
2019-04-10T01:43:46.784Z,39.90
2019-04-10T01:44:48.963Z,50.58
2019-04-10T01:45:50.075Z,39.35
2019-04-10T01:46:51.076Z,40.78
2019-04-10T01:47:53.195Z,45.92
2019-04-10T01:48:55.443Z,39.55
2019-04-10T01:49:56.615Z,44.42
2019-04-10T01:50:57.627Z,52.33
2019-04-10T01:51:59.470Z,39.98
2019-04-10T01:53:01.576Z,36.03
2019-04-10T01:54:02.769Z,46.20
2019-04-10T01:55:17.204Z,46.50
2019-04-10T01:56:20.368Z,36.63
2019-04-10T01:57:10.446Z,49.42
2019-04-10T01:58:13.523Z,69.03
2019-04-10T01:59:15.966Z,53.15
2019-04-10T02:00:22.051Z,59.95
2019-04-10T02:01:24.958Z,54.80
2019-04-10T02:02:42.685Z,51.25
2019-04-10T02:03:44.437Z,52.62
2019-04-10T02:04:45.491Z,47.40
2019-04-10T02:05:47.109Z,61.50
2019-04-10T02:06:48.244Z,62.08
2019-04-10T02:08:01.075Z,51.53
2019-04-10T02:08:52.256Z,56.63
2019-04-10T02:09:53.995Z,59.35
2019-04-10T02:10:55.182Z,55.20
2019-04-10T02:11:56.511Z,64.20
2019-04-10T02:12:57.646Z,66.82
2019-04-10T02:13:58.657Z,56.15
2019-04-10T02:15:00.471Z,63.63
2019-04-10T02:16:02.733Z,57.62
2019-04-10T02:17:04.279Z,62.43
2019-04-10T02:18:05.501Z,61.28
2019-04-10T02:19:06.505Z,59.70
2019-04-10T02:20:08.412Z,69.97
2019-04-10T02:21:09.623Z,52.30
2019-04-10T02:22:10.728Z,60.90
2019-04-10T02:23:12.225Z,73.60
2019-04-10T02:24:13.341Z,74.12
2019-04-10T02:25:15.485Z,70.10
2019-04-10T02:26:17.106Z,65.10
2019-04-10T02:27:18.367Z,65.45
2019-04-10T02:28:19.425Z,68.62
2019-04-10T02:29:20.434Z,70.65
2019-04-10T02:30:21.947Z,65.95
2019-04-10T02:31:24.161Z,71.57
2019-04-10T02:32:26.580Z,59.63
2019-04-10T02:33:29.369Z,65.72
2019-04-10T02:34:30.855Z,61.63
2019-04-10T02:35:31.964Z,60.05
2019-04-10T02:36:34.421Z,53.05
2019-04-10T02:37:37.226Z,71.72
2019-04-10T02:38:56.053Z,69.70
2019-04-10T02:39:47.054Z,72.92
2019-04-10T02:40:45.578Z,73.28
2019-04-10T02:41:46.989Z,66.15
2019-04-10T02:42:49.358Z,73.35
2019-04-10T02:43:51.398Z,67.17
2019-04-10T02:44:54.058Z,64.67
2019-04-10T02:45:55.781Z,88.67
2019-04-10T02:46:57.918Z,62.73
2019-04-10T02:48:01.487Z,72.62
2019-04-10T02:49:04.071Z,61.55
2019-04-10T02:50:07.964Z,70.30
2019-04-10T02:51:09.710Z,88.30
2019-04-10T02:52:12.838Z,75.40
2019-04-10T02:53:15.289Z,66.80
2019-04-10T02:54:17.570Z,63.55
2019-04-10T02:55:18.896Z,64.60
2019-04-10T02:56:21.649Z,72.55
2019-04-10T02:57:22.948Z,59.98
2019-04-10T02:58:24.722Z,68.25
2019-04-10T02:59:27.007Z,57.58
2019-04-10T03:00:28.353Z,77.17
2019-04-10T03:01:29.418Z,66.17
2019-04-10T03:02:31.146Z,59.58
2019-04-10T03:03:34.231Z,77.47
2019-04-10T03:04:37.079Z,71.33
2019-04-10T03:05:38.528Z,65.80
2019-04-10T03:06:39.854Z,75.25
2019-04-10T03:07:42.301Z,60.12
2019-04-10T03:08:59.087Z,59.38
2019-04-10T03:10:00.452Z,72.65
2019-04-10T03:10:56.019Z,56.25
2019-04-10T03:11:52.344Z,62.35
2019-04-10T03:12:54.441Z,93.40
2019-04-10T03:13:55.677Z,68.20
2019-04-10T03:14:56.757Z,66.60
2019-04-10T03:15:57.928Z,66.80
2019-04-10T03:16:59.772Z,48.60
2019-04-10T03:18:00.984Z,63.02
2019-04-10T03:19:01.990Z,63.50
2019-04-10T03:20:04.404Z,54.85
2019-04-10T03:21:05.419Z,71.55
2019-04-10T03:22:07.870Z,66.90
2019-04-10T03:23:09.403Z,65.52
2019-04-10T03:24:10.453Z,66.60
2019-04-10T03:25:11.468Z,65.42
2019-04-10T03:26:13.118Z,64.67
2019-04-10T03:27:14.515Z,70.65
2019-04-10T03:28:16.606Z,74.27
2019-04-10T03:29:17.858Z,67.58
2019-04-10T03:30:22.358Z,62.15
2019-04-10T03:31:23.038Z,66.72
2019-04-10T03:32:34.504Z,67.92
2019-04-10T03:33:37.581Z,73.37
2019-04-10T03:34:40.830Z,68.20
2019-04-10T03:35:43.065Z,73.87
2019-04-10T03:36:45.459Z,74.55
2019-04-10T03:37:46.743Z,67.25
2019-04-10T03:38:56.966Z,64.70
2019-04-10T03:39:51.019Z,56.70
2019-04-10T03:40:52.101Z,69.20
2019-04-10T03:41:53.120Z,66.42
2019-04-10T03:42:55.025Z,56.08
2019-04-10T03:43:56.411Z,63.60
2019-04-10T03:44:57.548Z,58.52
2019-04-10T03:45:59.188Z,62.80
2019-04-10T03:47:00.805Z,62.15
2019-04-10T03:48:02.067Z,53.28
2019-04-10T03:49:03.234Z,63.15
2019-04-10T03:50:06.678Z,56.15
2019-04-10T03:51:08.213Z,57.50
2019-04-10T03:52:10.101Z,69.12
2019-04-10T03:53:11.224Z,65.12
2019-04-10T03:54:13.153Z,62.58
2019-04-10T03:55:14.231Z,54.95
2019-04-10T03:56:15.783Z,66.50
2019-04-10T03:57:16.943Z,67.03
2019-04-10T03:58:17.944Z,75.60
2019-04-10T03:59:20.103Z,69.37
2019-04-10T04:00:22.359Z,67.85
2019-04-10T04:01:23.471Z,64.22
2019-04-10T04:02:24.489Z,54.05
2019-04-10T04:03:26.706Z,58.95
2019-04-10T04:04:27.899Z,55.08
2019-04-10T04:05:28.920Z,72.10
2019-04-10T04:06:30.013Z,68.90
2019-04-10T04:07:31.039Z,63.70
2019-04-10T04:08:32.150Z,68.57
2019-04-10T04:09:33.159Z,59.88
2019-04-10T04:10:35.064Z,62.05
2019-04-10T04:11:36.282Z,68.52
2019-04-10T04:12:37.287Z,62.43
2019-04-10T04:13:38.304Z,55.12
2019-04-10T04:14:39.390Z,56.48
2019-04-10T04:15:40.476Z,63.85
2019-04-10T04:16:41.562Z,64.47
2019-04-10T04:17:43.012Z,53.35
2019-04-10T04:18:44.018Z,64.47
2019-04-10T04:19:45.024Z,55.60
2019-04-10T04:20:46.032Z,48.70
2019-04-10T04:21:48.074Z,69.12
2019-04-10T04:22:49.534Z,68.80
2019-04-10T04:23:51.086Z,60.20
2019-04-10T04:24:52.409Z,57.55
2019-04-10T04:25:54.660Z,68.33
2019-04-10T04:26:57.205Z,65.60
2019-04-10T04:27:58.452Z,80.22
2019-04-10T04:28:59.920Z,66.25
2019-04-10T04:30:02.071Z,66.75
2019-04-10T04:31:03.206Z,64.07
2019-04-10T04:32:04.827Z,54.25
2019-04-10T04:33:06.674Z,60.33
2019-04-10T04:34:07.821Z,72.20
2019-04-10T04:35:09.100Z,69.95
2019-04-10T04:36:10.339Z,56.83
2019-04-10T04:37:12.367Z,56.28
2019-04-10T04:38:13.514Z,61.95
2019-04-10T04:39:21.703Z,75.72
2019-04-10T04:40:17.519Z,65.70
2019-04-10T04:41:19.542Z,56.85
2019-04-10T04:42:20.710Z,65.85
2019-04-10T04:43:23.204Z,57.85
2019-04-10T04:44:24.331Z,51.95
2019-04-10T04:45:25.677Z,76.22
2019-04-10T04:46:26.844Z,62.38
2019-04-10T04:47:28.742Z,53.40
2019-04-10T04:48:29.784Z,67.92
2019-04-10T04:49:30.790Z,51.35
2019-04-10T04:50:31.846Z,60.10
2019-04-10T04:51:33.100Z,53.00
2019-04-10T04:52:34.980Z,61.05
2019-04-10T04:53:36.421Z,65.85
2019-04-10T04:54:37.580Z,54.83
2019-04-10T04:55:39.465Z,59.58
2019-04-10T04:56:40.591Z,52.20
2019-04-10T04:57:42.280Z,56.35
2019-04-10T04:58:43.575Z,71.53
2019-04-10T04:59:44.904Z,50.00
2019-04-10T05:00:46.140Z,71.70
2019-04-10T05:01:47.152Z,58.30
2019-04-10T05:02:48.398Z,61.63
2019-04-10T05:03:50.459Z,64.10
2019-04-10T05:04:51.724Z,61.70
2019-04-10T05:05:52.762Z,62.30
2019-04-10T05:06:53.775Z,61.75
2019-04-10T05:08:00.024Z,67.85
2019-04-10T05:08:57.696Z,64.15
2019-04-10T05:10:00.604Z,61.95
2019-04-10T05:11:02.200Z,55.08
2019-04-10T05:12:03.455Z,57.58
2019-04-10T05:13:04.459Z,76.90
2019-04-10T05:14:05.474Z,51.33
2019-04-10T05:15:06.985Z,81.25
2019-04-10T05:16:08.246Z,51.92
2019-04-10T05:17:10.044Z,65.00
2019-04-10T05:18:11.184Z,63.92
2019-04-10T05:19:12.279Z,51.18
2019-04-10T05:20:13.411Z,63.10
2019-04-10T05:21:14.439Z,68.50
2019-04-10T05:22:15.447Z,59.10
2019-04-10T05:23:16.462Z,77.05
2019-04-10T05:24:17.834Z,66.22
2019-04-10T05:25:19.047Z,50.15
2019-04-10T05:26:20.799Z,67.55
2019-04-10T05:27:22.617Z,57.30
2019-04-10T05:28:24.304Z,60.38
2019-04-10T05:29:28.299Z,74.12
2019-04-10T05:30:29.203Z,70.75
2019-04-10T05:31:30.300Z,64.97
2019-04-10T05:32:31.304Z,59.40
2019-04-10T05:33:33.166Z,67.25
2019-04-10T05:34:34.444Z,57.98
2019-04-10T05:35:36.395Z,57.10
2019-04-10T05:36:37.791Z,79.15
2019-04-10T05:37:39.984Z,71.62
2019-04-10T05:38:41.855Z,92.33
2019-04-10T05:39:47.605Z,66.12
2019-04-10T05:40:45.975Z,55.28
2019-04-10T05:41:48.186Z,58.10
2019-04-10T05:42:49.387Z,71.72
2019-04-10T05:43:50.934Z,64.10
2019-04-10T05:44:52.329Z,64.42
2019-04-10T05:45:53.412Z,64.82
2019-04-10T05:46:54.883Z,58.52
2019-04-10T05:47:56.758Z,68.62
2019-04-10T05:48:58.266Z,63.92
2019-04-10T05:49:59.803Z,76.05
2019-04-10T05:51:04.213Z,64.82
2019-04-10T05:52:04.186Z,59.20
2019-04-10T05:53:05.431Z,56.48
2019-04-10T05:54:06.553Z,56.10
2019-04-10T05:55:08.526Z,69.47
2019-04-10T05:56:09.894Z,60.63
2019-04-10T05:57:11.022Z,57.62
2019-04-10T05:58:12.041Z,66.75
2019-04-10T05:59:13.596Z,59.73
2019-04-10T06:00:17.276Z,57.30
2019-04-10T06:01:30.031Z,63.02
2019-04-10T06:02:21.316Z,68.65
2019-04-10T06:03:22.735Z,63.05
2019-04-10T06:04:23.838Z,57.17
2019-04-10T06:05:24.857Z,53.68
2019-04-10T06:06:25.857Z,57.53
2019-04-10T06:07:27.348Z,62.78
2019-04-10T06:08:28.395Z,59.42
2019-04-10T06:09:29.400Z,58.48
2019-04-10T06:10:30.421Z,67.53
2019-04-10T06:11:31.440Z,62.08
2019-04-10T06:12:32.456Z,57.53
2019-04-10T06:13:34.662Z,68.95
2019-04-10T06:14:35.879Z,65.42
2019-04-10T06:15:37.224Z,59.75
2019-04-10T06:16:38.315Z,58.55
2019-04-10T06:17:40.592Z,57.85
2019-04-10T06:18:42.938Z,52.67
2019-04-10T06:19:44.798Z,58.63
2019-04-10T06:20:45.861Z,58.20
2019-04-10T06:21:48.082Z,66.10
2019-04-10T06:22:50.615Z,66.45
2019-04-10T06:23:51.890Z,64.47
2019-04-10T06:24:52.961Z,68.50
2019-04-10T06:25:54.120Z,68.95
2019-04-10T06:26:56.172Z,63.40
2019-04-10T06:27:57.224Z,58.33
2019-04-10T06:28:58.978Z,61.45
2019-04-10T06:30:00.046Z,55.08
2019-04-10T06:31:01.048Z,59.53
2019-04-10T06:32:03.184Z,67.17
2019-04-10T06:33:04.277Z,56.88
2019-04-10T06:34:05.299Z,57.27
2019-04-10T06:35:07.909Z,63.05
2019-04-10T06:36:09.280Z,57.80
2019-04-10T06:37:10.365Z,69.60
2019-04-10T06:38:12.562Z,70.72
2019-04-10T06:39:14.020Z,61.88
2019-04-10T06:40:20.545Z,65.65
2019-04-10T06:41:19.104Z,54.98
2019-04-10T06:42:20.473Z,70.67
2019-04-10T06:43:22.563Z,50.40
2019-04-10T06:44:24.409Z,51.88
2019-04-10T06:45:25.961Z,58.45
2019-04-10T06:46:27.216Z,63.42
2019-04-10T06:47:28.661Z,60.60
2019-04-10T06:48:30.015Z,58.02
2019-04-10T06:49:31.184Z,60.55
2019-04-10T06:50:32.200Z,55.50
2019-04-10T06:51:33.540Z,60.67
2019-04-10T06:52:34.611Z,59.35
2019-04-10T06:53:35.737Z,63.60
2019-04-10T06:54:36.770Z,56.48
2019-04-10T06:55:38.506Z,51.60
2019-04-10T06:56:40.960Z,64.30
2019-04-10T06:57:49.926Z,49.90
2019-04-10T06:58:45.034Z,51.70
2019-04-10T06:59:46.172Z,54.60
2019-04-10T07:00:51.601Z,56.42
2019-04-10T07:01:53.385Z,50.85
2019-04-10T07:02:53.165Z,54.95
2019-04-10T07:04:00.939Z,53.02
2019-04-10T07:05:04.680Z,56.02
2019-04-10T07:06:07.838Z,56.00
2019-04-10T07:07:08.794Z,45.63
2019-04-10T07:08:13.480Z,50.85
2019-04-10T07:09:11.734Z,54.08
2019-04-10T07:10:23.536Z,48.30
2019-04-10T07:11:18.199Z,54.83
2019-04-10T07:12:18.924Z,51.05
2019-04-10T07:13:19.928Z,54.55
2019-04-10T07:14:20.928Z,60.12
2019-04-10T07:15:23.896Z,57.67
2019-04-10T07:16:28.187Z,48.28
2019-04-10T07:17:27.776Z,53.63
2019-04-10T07:18:28.779Z,60.35
2019-04-10T07:19:30.318Z,58.75
2019-04-10T07:20:31.665Z,57.20
2019-04-10T07:21:35.384Z,66.28
2019-04-10T07:22:36.616Z,51.55
2019-04-10T07:23:38.747Z,51.60
2019-04-10T07:24:42.462Z,55.38
2019-04-10T07:25:45.375Z,51.90
2019-04-10T07:26:47.801Z,46.98
2019-04-10T07:27:48.519Z,62.15
2019-04-10T07:28:50.380Z,59.08
2019-04-10T07:29:57.346Z,53.30
2019-04-10T07:31:00.320Z,48.05
2019-04-10T07:31:58.388Z,47.33
2019-04-10T07:32:59.537Z,48.73
2019-04-10T07:34:01.427Z,60.30
2019-04-10T07:35:04.052Z,53.92
2019-04-10T07:36:09.004Z,58.38
2019-04-10T07:37:10.642Z,55.48
2019-04-10T07:38:11.803Z,55.83
2019-04-10T07:39:13.126Z,55.25
2019-04-10T07:40:14.576Z,58.75
2019-04-10T07:41:20.998Z,61.00
2019-04-10T07:42:26.930Z,46.90
2019-04-10T07:43:24.521Z,51.28
2019-04-10T07:44:24.545Z,51.33
2019-04-10T07:45:27.182Z,58.50
2019-04-10T07:46:28.408Z,49.08
2019-04-10T07:47:29.491Z,50.95
2019-04-10T07:48:31.476Z,51.05
2019-04-10T07:49:32.981Z,52.35
2019-04-10T07:50:34.835Z,54.05
2019-04-10T07:51:36.641Z,59.77
2019-04-10T07:52:37.847Z,52.40
2019-04-10T07:53:39.428Z,52.03
2019-04-10T07:54:43.063Z,54.75
2019-04-10T07:55:56.424Z,56.00
2019-04-10T07:56:47.275Z,46.73
2019-04-10T07:57:49.284Z,56.80
2019-04-10T07:58:51.764Z,54.53
2019-04-10T07:59:53.041Z,55.00
2019-04-10T08:00:54.049Z,57.15
2019-04-10T08:01:55.947Z,46.25
2019-04-10T08:02:57.513Z,44.50
2019-04-10T08:03:58.708Z,59.38
2019-04-10T08:05:00.103Z,49.58
2019-04-10T08:06:02.312Z,45.90
2019-04-10T08:07:03.558Z,48.55
2019-04-10T08:08:05.177Z,57.30
2019-04-10T08:09:08.275Z,57.05
2019-04-10T08:10:10.244Z,41.55
2019-04-10T08:11:11.349Z,55.10
2019-04-10T08:12:12.935Z,49.03
2019-04-10T08:13:16.130Z,48.28
2019-04-10T08:14:17.207Z,54.23
2019-04-10T08:15:18.905Z,47.90
2019-04-10T08:16:21.006Z,37.70
2019-04-10T08:17:22.252Z,40.92
2019-04-10T08:18:23.380Z,53.20
2019-04-10T08:19:25.395Z,51.15
2019-04-10T08:20:28.436Z,52.75
2019-04-10T08:21:29.630Z,43.42
2019-04-10T08:22:30.766Z,46.55
2019-04-10T08:23:31.874Z,52.23
2019-04-10T08:24:32.884Z,45.78
2019-04-10T08:25:33.893Z,57.05
2019-04-10T08:26:34.903Z,47.75
2019-04-10T08:27:36.241Z,43.87
2019-04-10T08:28:37.337Z,51.23
2019-04-10T08:29:39.364Z,44.95
2019-04-10T08:30:40.552Z,41.20
2019-04-10T08:31:41.564Z,47.90
2019-04-10T08:32:54.884Z,49.98
2019-04-10T08:33:46.194Z,48.33
2019-04-10T08:34:47.213Z,45.25
2019-04-10T08:35:48.259Z,54.27
2019-04-10T08:36:51.523Z,52.17
2019-04-10T08:37:52.774Z,43.30
2019-04-10T08:38:54.919Z,42.40
2019-04-10T08:39:56.810Z,51.53
2019-04-10T08:40:58.645Z,47.55
2019-04-10T08:42:00.022Z,58.90
2019-04-10T08:43:02.077Z,52.30
2019-04-10T08:44:04.294Z,46.28
2019-04-10T08:45:07.013Z,45.63
2019-04-10T08:46:08.719Z,45.67
2019-04-10T08:47:10.908Z,41.37
2019-04-10T08:48:12.142Z,48.23
2019-04-10T08:49:14.277Z,47.35
2019-04-10T08:50:15.469Z,44.23
2019-04-10T08:51:17.111Z,48.80
2019-04-10T08:52:18.365Z,40.08
2019-04-10T08:53:20.115Z,53.55
2019-04-10T08:54:21.262Z,51.35
2019-04-10T08:55:22.277Z,47.80
2019-04-10T08:56:24.630Z,47.35
2019-04-10T08:57:25.807Z,45.60
2019-04-10T08:58:27.161Z,45.50
2019-04-10T08:59:28.469Z,50.80
2019-04-10T09:00:29.475Z,41.33
2019-04-10T09:01:31.473Z,61.10
2019-04-10T09:02:33.838Z,46.35
2019-04-10T09:03:35.089Z,60.60
2019-04-10T09:04:37.018Z,55.70
2019-04-10T09:05:38.140Z,51.37
2019-04-10T09:06:39.795Z,41.63
2019-04-10T09:07:41.258Z,44.93
2019-04-10T09:08:43.484Z,48.23
2019-04-10T09:09:45.757Z,52.80
2019-04-10T09:10:47.014Z,36.85
2019-04-10T09:11:48.027Z,58.73
2019-04-10T09:12:49.242Z,56.85
2019-04-10T09:13:50.276Z,45.73
2019-04-10T09:14:51.771Z,60.15
2019-04-10T09:15:54.084Z,44.90
2019-04-10T09:16:55.369Z,44.58
2019-04-10T09:17:56.365Z,61.58
2019-04-10T09:18:57.889Z,41.02
2019-04-10T09:20:00.452Z,39.40
2019-04-10T09:21:02.789Z,50.20
2019-04-10T09:22:04.099Z,48.40
2019-04-10T09:23:18.659Z,41.18
2019-04-10T09:24:08.235Z,52.80
2019-04-10T09:25:09.430Z,52.75
2019-04-10T09:26:11.372Z,40.03
2019-04-10T09:27:13.023Z,38.33
2019-04-10T09:28:14.208Z,41.60
2019-04-10T09:29:16.079Z,45.40
2019-04-10T09:30:18.394Z,42.93
2019-04-10T09:31:19.843Z,46.80
2019-04-10T09:32:20.857Z,43.78
2019-04-10T09:33:26.018Z,52.60
2019-04-10T09:34:25.590Z,50.08
2019-04-10T09:35:26.748Z,46.35
2019-04-10T09:36:27.827Z,37.93
2019-04-10T09:37:31.054Z,46.05
2019-04-10T09:38:32.265Z,53.05
2019-04-10T09:39:33.722Z,46.18
2019-04-10T09:40:34.902Z,44.77
2019-04-10T09:41:36.211Z,43.17
2019-04-10T09:42:37.585Z,43.40
2019-04-10T09:43:38.749Z,47.60
2019-04-10T09:44:40.257Z,50.80
2019-04-10T09:45:41.634Z,49.05
2019-04-10T09:46:42.923Z,53.75
2019-04-10T09:47:43.988Z,39.55
2019-04-10T09:48:45.009Z,45.05
2019-04-10T09:49:47.114Z,55.50
2019-04-10T09:50:48.360Z,54.40
2019-04-10T09:51:50.214Z,49.45
2019-04-10T09:52:52.377Z,50.48
2019-04-10T09:53:53.612Z,60.25
2019-04-10T09:54:55.291Z,45.08
2019-04-10T09:55:56.779Z,40.78
2019-04-10T09:56:57.840Z,56.28
2019-04-10T09:58:00.045Z,50.28
2019-04-10T09:59:01.314Z,51.05
2019-04-10T10:00:05.296Z,45.52
2019-04-10T10:01:10.738Z,54.60
2019-04-10T10:02:13.238Z,61.30
2019-04-10T10:03:15.286Z,44.93
2019-04-10T10:04:17.355Z,52.00
2019-04-10T10:05:18.571Z,43.40
2019-04-10T10:06:27.136Z,45.98
2019-04-10T10:07:22.765Z,54.27
2019-04-10T10:08:24.788Z,35.90
2019-04-10T10:09:27.838Z,41.45
2019-04-10T10:10:29.230Z,48.15
2019-04-10T10:11:30.715Z,51.63
2019-04-10T10:12:32.216Z,39.33
2019-04-10T10:13:33.951Z,52.10
2019-04-10T10:14:35.879Z,51.33
2019-04-10T10:15:37.669Z,34.18
2019-04-10T10:16:38.800Z,40.73
2019-04-10T10:17:39.810Z,46.00
2019-04-10T10:18:41.552Z,41.33
2019-04-10T10:19:42.705Z,45.80
2019-04-10T10:20:43.987Z,52.30
2019-04-10T10:21:45.257Z,48.68
2019-04-10T10:22:47.200Z,43.38
2019-04-10T10:23:49.756Z,48.13
2019-04-10T10:24:51.032Z,49.63
2019-04-10T10:25:53.219Z,49.23
2019-04-10T10:26:55.548Z,38.78
2019-04-10T10:27:56.872Z,49.00
2019-04-10T10:28:58.584Z,41.88
2019-04-10T10:30:00.016Z,38.30
2019-04-10T10:31:01.935Z,54.90
2019-04-10T10:32:03.125Z,41.65
2019-04-10T10:33:04.134Z,44.55
2019-04-10T10:34:06.023Z,47.95
2019-04-10T10:35:07.775Z,41.53
2019-04-10T10:36:08.780Z,46.55
2019-04-10T10:37:10.492Z,55.50
2019-04-10T10:38:12.638Z,48.48
2019-04-10T10:39:17.368Z,48.58
2019-04-10T10:40:19.294Z,50.45
2019-04-10T10:41:20.703Z,42.62
2019-04-10T10:42:21.732Z,57.15
2019-04-10T10:43:22.791Z,43.92
2019-04-10T10:44:23.852Z,45.00
2019-04-10T10:45:25.014Z,45.38
2019-04-10T10:46:27.208Z,35.70
2019-04-10T10:47:29.247Z,44.23
2019-04-10T10:48:31.579Z,45.52
2019-04-10T10:49:32.752Z,41.28
2019-04-10T10:50:33.773Z,44.58
2019-04-10T10:51:35.047Z,43.10
2019-04-10T10:52:36.439Z,40.63
2019-04-10T10:53:38.527Z,38.17
2019-04-10T10:54:41.012Z,40.23
2019-04-10T10:55:42.356Z,53.55
2019-04-10T10:56:44.632Z,53.92
2019-04-10T10:57:46.955Z,45.28
2019-04-10T10:58:48.224Z,38.40
2019-04-10T10:59:49.508Z,40.95
2019-04-10T11:00:51.644Z,52.20
2019-04-10T11:01:53.833Z,41.98
2019-04-10T11:02:55.992Z,57.75
2019-04-10T11:03:58.343Z,40.58
2019-04-10T11:05:02.395Z,55.33
2019-04-10T11:06:02.515Z,45.83
2019-04-10T11:07:04.611Z,45.40
2019-04-10T11:08:06.805Z,46.00
2019-04-10T11:09:12.591Z,45.23
2019-04-10T11:10:14.788Z,52.65
2019-04-10T11:11:17.082Z,48.52
2019-04-10T11:12:18.290Z,51.90
2019-04-10T11:13:19.307Z,43.78
2019-04-10T11:14:21.373Z,49.98
2019-04-10T11:15:23.793Z,50.30
2019-04-10T11:16:25.248Z,39.80
2019-04-10T11:17:28.067Z,49.08
2019-04-10T11:18:29.184Z,39.05
2019-04-10T11:19:31.149Z,47.10
2019-04-10T11:20:32.570Z,38.63
2019-04-10T11:21:34.611Z,42.75
2019-04-10T11:22:35.752Z,49.30
2019-04-10T11:23:37.618Z,46.25
2019-04-10T11:24:40.731Z,43.40
2019-04-10T11:25:41.787Z,46.75
2019-04-10T11:26:44.043Z,67.30
2019-04-10T11:27:45.240Z,40.03
2019-04-10T11:28:47.793Z,44.67
2019-04-10T11:29:49.005Z,47.48
2019-04-10T11:30:50.874Z,59.42
2019-04-10T11:31:53.622Z,48.00
2019-04-10T11:32:54.966Z,46.50
2019-04-10T11:33:56.904Z,43.60
2019-04-10T11:34:59.103Z,38.25
2019-04-10T11:36:00.498Z,40.45
2019-04-10T11:37:19.253Z,47.35
2019-04-10T11:38:05.989Z,37.93
2019-04-10T11:39:16.770Z,43.33
2019-04-10T11:40:12.388Z,47.10
2019-04-10T11:41:14.992Z,46.80
2019-04-10T11:42:16.159Z,44.60
2019-04-10T11:43:17.173Z,47.03
2019-04-10T11:44:20.281Z,43.75
2019-04-10T11:45:22.816Z,40.75
2019-04-10T11:46:28.269Z,54.40
2019-04-10T11:47:26.945Z,52.48
2019-04-10T11:48:29.089Z,43.13
2019-04-10T11:49:31.521Z,43.58
2019-04-10T11:50:34.728Z,44.15
2019-04-10T11:51:36.760Z,46.80
2019-04-10T11:52:45.155Z,38.92
2019-04-10T11:53:45.395Z,49.67
2019-04-10T11:54:46.496Z,43.30
2019-04-10T11:55:51.104Z,50.35
2019-04-10T11:56:52.851Z,44.70
2019-04-10T11:57:54.667Z,40.70
2019-04-10T11:58:57.003Z,43.42
2019-04-10T12:00:01.129Z,44.25
2019-04-10T12:01:02.523Z,46.92
2019-04-10T12:02:06.497Z,39.42
2019-04-10T12:03:10.038Z,51.10
2019-04-10T12:04:10.905Z,51.77
2019-04-10T12:05:18.523Z,48.52
2019-04-10T12:06:15.737Z,47.08
2019-04-10T12:08:45.898Z,50.23
2019-04-10T12:11:30.953Z,36.60
2019-04-10T12:12:32.067Z,47.20
2019-04-10T12:13:34.405Z,42.40
2019-04-10T12:14:35.525Z,38.05
2019-04-10T12:15:36.556Z,47.00
2019-04-10T12:16:37.569Z,41.00
2019-04-10T12:17:38.585Z,52.65
2019-04-10T12:18:40.542Z,42.43
2019-04-10T12:19:42.467Z,47.80
2019-04-10T12:20:43.666Z,35.05
2019-04-10T12:21:44.682Z,38.58
2019-04-10T12:22:46.206Z,38.65
2019-04-10T12:23:47.441Z,45.92
2019-04-10T12:24:49.929Z,45.23
2019-04-10T12:25:52.159Z,43.05
2019-04-10T12:26:53.677Z,44.63
2019-04-10T12:27:55.686Z,39.48
2019-04-10T12:28:57.985Z,35.05
2019-04-10T12:29:59.432Z,44.13
2019-04-10T12:31:01.668Z,45.67
2019-04-10T12:32:04.191Z,37.98
2019-04-10T12:33:05.478Z,33.28
2019-04-10T12:34:06.693Z,41.63
2019-04-10T12:35:08.827Z,36.17
2019-04-10T12:36:10.198Z,38.75
2019-04-10T12:37:11.524Z,47.75
2019-04-10T12:38:13.376Z,35.43
2019-04-10T12:39:14.536Z,44.42
2019-04-10T12:40:15.752Z,38.83
2019-04-10T12:41:17.313Z,37.80
2019-04-10T12:42:19.716Z,45.38
2019-04-10T12:43:20.940Z,36.40
2019-04-10T12:44:22.024Z,33.88
2019-04-10T12:45:24.213Z,42.33
2019-04-10T12:46:25.468Z,40.43
2019-04-10T12:47:26.507Z,41.13
2019-04-10T12:48:28.537Z,34.88
2019-04-10T12:49:29.776Z,35.13
2019-04-10T12:50:31.023Z,33.75
2019-04-10T12:51:32.033Z,41.68
2019-04-10T12:52:33.039Z,42.45
2019-04-10T12:53:34.371Z,43.80
2019-04-10T12:54:35.710Z,45.38
2019-04-10T12:55:36.790Z,38.67
2019-04-10T12:56:37.973Z,32.85
2019-04-10T12:57:39.194Z,51.15
2019-04-10T12:58:40.273Z,49.98
2019-04-10T12:59:41.728Z,42.35
2019-04-10T13:00:42.998Z,45.98
2019-04-10T13:01:44.880Z,35.58
2019-04-10T13:02:47.021Z,44.23
2019-04-10T13:03:48.141Z,45.45
2019-04-10T13:04:49.156Z,31.65
2019-04-10T13:05:50.177Z,41.10
2019-04-10T13:06:52.699Z,36.40
2019-04-10T13:07:54.101Z,31.60
2019-04-10T13:09:03.628Z,47.98
2019-04-10T13:09:58.195Z,40.38
2019-04-10T13:11:00.991Z,39.25
2019-04-10T13:12:02.472Z,40.92
2019-04-10T13:13:04.045Z,35.50
2019-04-10T13:14:05.096Z,36.25
2019-04-10T13:15:07.663Z,31.48
2019-04-10T13:16:09.819Z,31.80
2019-04-10T13:17:12.269Z,39.45
2019-04-10T13:18:14.318Z,33.23